Terminal Aerodrome Forecast
Issued by NWS Charleston, WV

Home | Current Version | Previous Version | Text Only | Print | Product List | Glossary On
Versions: 1 2 3 4 5 6 7 8 9 10 11 12 13 14 15 16 17 18 19 20 21
000
FTUS41 KRLX 122327
TAFPKB
TAF
KPKB 122327Z 1300/1324 31013G22KT 6SM -SHSN BKN035
      TEMPO 1300/1303 3SM -SN OVC025
     FM130500 29010G17KT P6SM BKN035
     FM131000 28007KT P6SM BKN035
     FM131500 25008G14KT P6SM BKN070=

USA.gov is the U.S. government's official web portal to all federal, state and local government web resources and services.